Time;durP1;ratioP1;P1;durP2;ratioP2;P2;SDS_P1;SDS_P2;PMS_P1;PMS_P2;Temp;Humidity;BMP_temperature;BMP_pressure;BME280_temperature;BME280_humidity;BME280_pressure;Samples;Min_cycle;Max_cycle;Signal;HPM_P1;HPM_P2
2021/03/14 00:00:15;;;;;;;1.13;0.80;;;;;;;4.99;71.77;95477.38;5058751;28;20812;-69
2021/03/14 00:02:40;;;;;;;1.30;0.80;;;;;;;5.11;71.59;95464.88;5048740;28;20214;-68
2021/03/14 00:05:07;;;;;;;1.57;0.90;;;;;;;5.07;72.00;95474.78;5048952;28;20779;-68
2021/03/14 00:07:33;;;;;;;1.27;0.70;;;;;;;4.99;71.86;95474.78;5050900;28;20622;-69
2021/03/14 00:09:58;;;;;;;1.73;1.00;;;;;;;4.92;72.52;95471.19;5080657;28;20432;-67
2021/03/14 00:12:24;;;;;;;1.10;0.80;;;;;;;5.22;71.75;95484.53;5052983;28;20944;-69
2021/03/14 00:14:50;;;;;;;0.90;0.80;;;;;;;5.11;71.82;95482.25;5051622;28;20540;-69
2021/03/14 00:17:16;;;;;;;1.60;1.10;;;;;;;4.86;72.08;95475.22;5050521;28;20426;-70
2021/03/14 00:19:41;;;;;;;1.00;0.80;;;;;;;5.20;71.46;95473.50;5083016;28;20187;-69
2021/03/14 00:22:07;;;;;;;1.47;0.90;;;;;;;4.56;73.95;95477.44;5050838;28;20578;-69
2021/03/14 00:24:33;;;;;;;1.00;0.80;;;;;;;4.95;73.83;95488.25;5033368;28;20187;-70
2021/03/14 00:26:59;;;;;;;3.00;1.10;;;;;;;4.51;75.09;95494.44;5042136;28;20191;-67
2021/03/14 00:29:24;;;;;;;2.63;0.83;;;;;;;4.56;75.31;95505.97;5042882;28;20418;-68
2021/03/14 00:31:50;;;;;;;2.17;0.80;;;;;;;4.68;74.60;95506.47;5044171;28;20183;-69
2021/03/14 00:34:16;;;;;;;1.57;0.80;;;;;;;4.24;75.57;95524.78;5046848;28;20630;-68
2021/03/14 00:36:41;;;;;;;1.03;0.93;;;;;;;4.18;76.24;95522.78;5044183;28;20565;-68
2021/03/14 00:39:07;;;;;;;1.00;0.90;;;;;;;4.41;74.67;95528.28;5044428;28;20647;-69
2021/03/14 00:41:33;;;;;;;3.43;1.10;;;;;;;4.54;73.88;95539.03;5041967;28;20202;-69
2021/03/14 00:43:59;;;;;;;1.73;1.13;;;;;;;4.19;73.59;95534.78;5039971;28;20549;-68
2021/03/14 00:46:28;;;;;;;2.03;1.20;;;;;;;4.24;74.34;95540.34;5054064;28;20180;-69
2021/03/14 00:48:54;;;;;;;2.10;1.10;;;;;;;4.17;73.81;95531.53;5030340;28;20433;-70
2021/03/14 00:51:20;;;;;;;1.60;1.07;;;;;;;4.82;72.24;95518.06;5045818;28;20488;-68
2021/03/14 00:53:45;;;;;;;1.00;0.90;;;;;;;4.49;72.61;95517.94;5045095;28;20626;-68
2021/03/14 00:56:11;;;;;;;1.30;0.80;;;;;;;4.10;73.92;95516.59;5046831;28;20556;-69
2021/03/14 00:58:37;;;;;;;0.90;0.80;;;;;;;4.37;73.40;95520.00;5080339;28;20188;-68
2021/03/14 01:01:03;;;;;;;1.80;0.70;;;;;;;4.30;73.73;95513.78;5077921;28;20475;-69
2021/03/14 01:03:29;;;;;;;0.90;0.80;;;;;;;4.54;72.62;95520.03;5047122;28;20207;-68
2021/03/14 01:05:54;;;;;;;1.17;0.70;;;;;;;4.06;74.90;95528.25;5043878;28;20179;-67
2021/03/14 01:08:20;;;;;;;0.90;0.80;;;;;;;3.81;75.69;95527.28;5037170;28;20187;-67
2021/03/14 01:10:46;;;;;;;0.90;0.70;;;;;;;3.54;75.77;95524.63;5055660;28;20234;-67
2021/03/14 01:13:12;;;;;;;1.83;0.80;;;;;;;3.72;76.52;95531.59;5056907;28;20213;-67
2021/03/14 01:15:37;;;;;;;1.80;0.83;;;;;;;4.15;74.05;95539.47;5053606;28;21088;-67
2021/03/14 01:18:04;;;;;;;1.40;1.10;;;;;;;3.65;75.47;95540.94;5054007;28;21193;-68
2021/03/14 01:20:30;;;;;;;1.17;1.07;;;;;;;4.04;74.80;95543.13;5057860;28;20187;-67
2021/03/14 01:22:55;;;;;;;2.90;1.27;;;;;;;3.72;74.57;95531.59;5059624;28;20981;-68
2021/03/14 01:25:21;;;;;;;0.97;0.87;;;;;;;4.24;74.03;95540.34;5054189;28;20183;-68
2021/03/14 01:27:47;;;;;;;1.97;0.93;;;;;;;3.63;76.60;95537.66;5048236;28;20184;-68
2021/03/14 01:30:17;;;;;;;1.00;0.90;;;;;;;3.86;75.75;95543.16;5058047;28;20191;-68
2021/03/14 01:32:43;;;;;;;1.53;1.00;;;;;;;3.80;75.86;95538.59;5091945;28;20210;-68
2021/03/14 01:35:10;;;;;;;1.13;0.80;;;;;;;3.83;75.92;95549.47;5058551;28;20428;-68
2021/03/14 01:37:36;;;;;;;1.43;0.90;;;;;;;3.64;76.09;95544.47;5056944;28;20418;-67
2021/03/14 01:40:03;;;;;;;1.00;0.80;;;;;;;3.60;75.86;95532.78;5056816;28;20452;-69
2021/03/14 01:42:30;;;;;;;0.97;0.87;;;;;;;3.87;75.09;95538.81;5057526;28;20658;-68
2021/03/14 01:44:56;;;;;;;0.90;0.80;;;;;;;3.82;75.27;95545.25;5057976;28;20647;-68
2021/03/14 01:47:30;;;;;;;0.97;0.87;;;;;;;4.43;73.87;95549.69;5055764;28;20436;-70
2021/03/14 01:49:57;;;;;;;1.00;0.90;;;;;;;4.10;73.85;95558.09;5061504;28;20431;-67
2021/03/14 01:52:23;;;;;;;1.00;0.67;;;;;;;3.62;76.19;95554.19;5055498;28;20421;-67
2021/03/14 01:54:49;;;;;;;0.80;0.70;;;;;;;3.74;75.14;95559.91;5054253;28;20841;-69
2021/03/14 01:57:15;;;;;;;1.23;0.80;;;;;;;3.98;74.63;95557.50;5057770;28;20183;-67
2021/03/14 01:59:41;;;;;;;0.90;0.80;;;;;;;3.90;75.41;95560.06;5045061;28;20901;-67
2021/03/14 02:02:07;;;;;;;0.80;0.70;;;;;;;4.05;74.90;95556.91;5057635;28;20572;-67
2021/03/14 02:04:32;;;;;;;0.80;0.70;;;;;;;3.67;75.67;95557.13;5041562;28;20426;-67
2021/03/14 02:06:58;;;;;;;0.80;0.60;;;;;;;3.63;76.27;95561.78;5060451;28;20531;-67
2021/03/14 02:09:24;;;;;;;0.80;0.60;;;;;;;3.60;75.99;95567.25;5044530;28;20180;-67
2021/03/14 02:11:51;;;;;;;0.80;0.60;;;;;;;3.53;75.97;95574.81;5043312;28;20228;-68
2021/03/14 02:14:17;;;;;;;0.80;0.60;;;;;;;3.90;75.16;95585.16;5020493;28;20199;-68
2021/03/14 02:16:44;;;;;;;0.90;0.60;;;;;;;3.75;75.93;95587.47;5074354;28;20436;-68
2021/03/14 02:19:19;;;;;;;0.90;0.70;;;;;;;3.85;75.00;95588.19;5045591;28;20197;-68
2021/03/14 02:21:45;;;;;;;0.90;0.70;;;;;;;3.96;74.71;95592.34;5068623;28;20444;-69
2021/03/14 02:24:16;;;;;;;0.90;0.77;;;;;;;3.60;75.90;95597.53;5063437;28;20444;-68
2021/03/14 02:26:45;;;;;;;0.80;0.60;;;;;;;3.70;75.87;95590.50;5064175;28;20434;-67
2021/03/14 02:29:21;;;;;;;1.30;0.77;;;;;;;3.63;76.04;95600.66;5056233;28;20452;-71
2021/03/14 02:31:50;;;;;;;2.03;0.73;;;;;;;3.47;76.51;95609.09;5065508;28;20418;-70
2021/03/14 02:34:26;;;;;;;0.90;0.80;;;;;;;3.78;75.54;95606.13;5064629;28;20448;-69
2021/03/14 02:36:53;;;;;;;1.30;0.83;;;;;;;3.64;76.09;95598.88;5065554;28;20800;-69
2021/03/14 02:39:21;;;;;;;0.90;0.80;;;;;;;3.61;76.56;95596.59;5088884;28;20422;-67
2021/03/14 02:41:48;;;;;;;1.00;0.87;;;;;;;3.87;75.40;95595.84;5057326;28;20453;-68
2021/03/14 02:44:15;;;;;;;2.40;1.10;;;;;;;3.61;77.01;95599.19;5062975;28;20963;-69
2021/03/14 02:46:42;;;;;;;0.90;0.70;;;;;;;3.57;76.22;95600.44;5057945;28;20433;-68
2021/03/14 02:49:08;;;;;;;1.93;1.00;;;;;;;3.82;76.22;95604.88;5057380;28;20421;-67
2021/03/14 02:51:34;;;;;;;1.00;0.90;;;;;;;3.69;75.82;95615.63;5060686;28;20443;-69
2021/03/14 02:54:01;;;;;;;1.00;0.90;;;;;;;3.66;75.26;95615.91;5088799;28;20264;-67
2021/03/14 02:56:26;;;;;;;1.10;0.90;;;;;;;3.82;75.86;95617.81;5056330;28;20508;-69
2021/03/14 02:58:53;;;;;;;1.00;0.90;;;;;;;3.95;75.58;95629.59;5056810;28;20916;-68
2021/03/14 03:01:25;;;;;;;2.70;0.93;;;;;;;4.03;74.36;95627.06;5062487;28;20202;-69
2021/03/14 03:03:51;;;;;;;2.43;1.17;;;;;;;3.88;75.17;95634.56;5043825;28;20956;-68
2021/03/14 03:06:16;;;;;;;1.43;0.90;;;;;;;4.02;74.78;95630.63;5052536;28;20460;-71
2021/03/14 03:08:43;;;;;;;1.10;0.70;;;;;;;3.85;74.32;95645.22;5052489;28;20194;-68
2021/03/14 03:11:12;;;;;;;1.93;1.00;;;;;;;3.61;75.69;95654.38;5052398;28;20175;-71
2021/03/14 03:13:38;;;;;;;1.87;0.90;;;;;;;3.80;75.04;95658.63;5059028;28;20460;-70
2021/03/14 03:16:05;;;;;;;1.17;1.07;;;;;;;3.99;74.61;95656.84;5048131;28;20423;-69
2021/03/14 03:18:31;;;;;;;1.10;1.00;;;;;;;3.80;75.05;95671.56;5046911;28;20535;-67
2021/03/14 03:20:57;;;;;;;0.80;0.80;;;;;;;3.42;76.18;95675.25;5057957;28;20450;-68
2021/03/14 03:23:23;;;;;;;1.20;0.90;;;;;;;3.82;74.49;95679.22;5055155;28;20493;-68
2021/03/14 03:25:49;;;;;;;0.90;0.80;;;;;;;4.01;73.67;95686.03;5057509;28;20226;-69
2021/03/14 03:28:15;;;;;;;0.93;0.83;;;;;;;4.01;73.62;95693.81;5066178;28;20189;-70
2021/03/14 03:30:41;;;;;;;1.53;0.83;;;;;;;3.60;75.01;95689.03;5096718;28;20184;-67
2021/03/14 03:33:07;;;;;;;1.10;1.00;;;;;;;3.83;74.81;95693.81;5057376;28;20446;-69
2021/03/14 03:35:33;;;;;;;1.83;0.90;;;;;;;4.02;74.30;95703.22;5051710;28;20428;-69
2021/03/14 03:37:59;;;;;;;1.00;0.90;;;;;;;3.66;76.02;95704.00;5052906;28;20437;-68
2021/03/14 03:40:30;;;;;;;1.30;1.20;;;;;;;3.97;74.71;95705.44;5050240;28;20495;-69
2021/03/14 03:43:03;;;;;;;1.10;1.00;;;;;;;4.15;73.95;95705.44;5051104;28;20697;-69
2021/03/14 03:45:30;;;;;;;1.10;1.00;;;;;;;4.31;73.08;95720.31;5051666;28;20426;-69
2021/03/14 03:47:57;;;;;;;2.03;1.00;;;;;;;4.20;73.42;95726.56;5053831;28;20767;-69
2021/03/14 03:50:23;;;;;;;1.40;1.30;;;;;;;4.04;73.35;95727.19;5049752;28;20460;-69
2021/03/14 03:52:50;;;;;;;1.30;1.20;;;;;;;4.25;73.37;95737.28;5049929;28;20465;-70
2021/03/14 03:55:17;;;;;;;1.40;1.30;;;;;;;4.09;74.47;95734.56;5055440;28;20425;-70
2021/03/14 03:57:43;;;;;;;2.10;1.50;;;;;;;4.03;74.15;95745.50;5049809;28;20429;-70
2021/03/14 04:00:12;;;;;;;3.00;1.50;;;;;;;3.95;75.16;95743.66;5048557;28;20436;-68
2021/03/14 04:02:39;;;;;;;1.50;1.40;;;;;;;4.14;73.83;95745.28;5048033;28;20461;-69
2021/03/14 04:05:08;;;;;;;1.70;1.60;;;;;;;4.09;73.98;95750.13;5051762;28;20429;-68
2021/03/14 04:07:36;;;;;;;2.60;1.47;;;;;;;3.71;75.71;95765.75;5039341;28;20496;-69
2021/03/14 04:10:04;;;;;;;5.90;1.50;;;;;;;4.01;74.44;95761.22;5048917;28;20439;-70
2021/03/14 04:12:30;;;;;;;1.63;1.53;;;;;;;4.18;74.21;95775.16;5050395;28;20954;-69
2021/03/14 04:14:56;;;;;;;2.27;1.80;;;;;;;4.52;72.70;95773.69;5048634;28;20430;-69
2021/03/14 04:17:21;;;;;;;1.60;1.50;;;;;;;4.34;73.81;95784.88;5049345;28;20278;-68
2021/03/14 04:19:48;;;;;;;1.80;1.70;;;;;;;3.61;75.82;95788.31;5051078;28;20265;-69
2021/03/14 04:22:14;;;;;;;2.13;2.03;;;;;;;4.07;74.60;95793.53;5048859;28;20215;-68
2021/03/14 04:24:41;;;;;;;1.80;1.70;;;;;;;4.35;73.27;95793.47;5049823;28;20441;-68
2021/03/14 04:27:07;;;;;;;2.30;2.10;;;;;;;4.42;72.92;95797.09;5049763;28;20434;-70
2021/03/14 04:29:33;;;;;;;2.10;2.00;;;;;;;3.90;74.69;95801.09;5049741;28;20425;-69
2021/03/14 04:31:59;;;;;;;2.00;1.80;;;;;;;4.21;73.12;95812.94;5050205;28;20211;-68
2021/03/14 04:34:26;;;;;;;2.00;1.90;;;;;;;3.98;73.44;95821.13;5050083;28;20236;-69
2021/03/14 04:36:52;;;;;;;2.00;1.90;;;;;;;4.37;72.94;95818.28;5048342;28;20427;-69
2021/03/14 04:39:18;;;;;;;1.77;1.67;;;;;;;3.54;74.68;95829.50;5048531;28;20440;-70
2021/03/14 04:41:45;;;;;;;1.90;1.80;;;;;;;3.66;75.15;95835.31;5057265;28;20457;-70
2021/03/14 04:44:12;;;;;;;1.70;1.60;;;;;;;3.20;75.67;95842.97;5055677;28;20829;-69
2021/03/14 04:46:38;;;;;;;1.70;1.60;;;;;;;3.92;74.15;95835.47;5060658;28;20420;-70
2021/03/14 04:49:04;;;;;;;2.10;1.90;;;;;;;3.39;75.73;95839.53;5048574;28;20429;-69
2021/03/14 04:51:31;;;;;;;2.00;1.67;;;;;;;3.39;75.48;95842.13;5050280;28;20171;-70
2021/03/14 04:53:57;;;;;;;2.90;1.20;;;;;;;3.42;75.64;95836.63;5046710;28;20298;-68
2021/03/14 04:56:24;;;;;;;1.57;1.23;;;;;;;3.43;75.72;95847.81;5016868;28;20417;-67
2021/03/14 04:58:51;;;;;;;2.40;1.10;;;;;;;3.29;75.19;95851.66;5050834;28;20463;-68
2021/03/14 05:01:18;;;;;;;2.23;1.40;;;;;;;3.52;74.09;95847.78;5050143;28;20469;-68
2021/03/14 05:03:46;;;;;;;6.07;1.30;;;;;;;3.49;74.55;95858.44;5042164;28;20445;-68
2021/03/14 05:06:16;;;;;;;3.03;1.40;;;;;;;3.57;74.04;95857.72;5048703;28;20437;-67
2021/03/14 05:08:42;;;;;;;2.23;1.40;;;;;;;3.42;74.77;95854.75;5035374;28;20433;-67
2021/03/14 05:11:08;;;;;;;4.50;1.30;;;;;;;3.36;75.38;95863.91;5049225;28;20839;-67
2021/03/14 05:13:35;;;;;;;1.43;1.10;;;;;;;3.19;76.11;95868.03;5050206;28;20442;-69
2021/03/14 05:16:01;;;;;;;1.30;1.10;;;;;;;3.50;75.12;95870.44;5016838;28;20187;-68
2021/03/14 05:18:27;;;;;;;1.60;0.90;;;;;;;3.62;74.36;95867.66;5048129;28;20516;-68
2021/03/14 05:20:53;;;;;;;1.93;0.90;;;;;;;3.14;75.74;95875.41;5048941;28;20560;-69
2021/03/14 05:23:19;;;;;;;1.13;0.80;;;;;;;3.13;75.66;95878.97;5049626;28;20962;-67
2021/03/14 05:25:45;;;;;;;3.90;1.10;;;;;;;3.18;76.27;95881.94;5049804;28;20186;-69
2021/03/14 05:28:12;;;;;;;6.83;1.20;;;;;;;3.20;76.17;95890.38;5048881;28;20190;-68
2021/03/14 05:30:38;;;;;;;1.73;0.93;;;;;;;2.97;76.60;95897.63;5051560;28;20425;-69
2021/03/14 05:33:04;;;;;;;3.70;1.10;;;;;;;3.14;76.35;95885.78;5052628;28;20451;-68
2021/03/14 05:35:31;;;;;;;4.10;1.17;;;;;;;3.21;76.02;95891.22;5053388;28;20658;-67
2021/03/14 05:37:59;;;;;;;1.10;1.00;;;;;;;3.36;74.97;95905.34;5056023;28;20520;-68
2021/03/14 05:40:26;;;;;;;1.43;1.13;;;;;;;3.25;75.32;95907.28;5052721;28;20445;-67
2021/03/14 05:42:52;;;;;;;1.20;1.07;;;;;;;3.27;75.23;95903.59;5052623;28;20492;-69
2021/03/14 05:45:18;;;;;;;1.20;1.07;;;;;;;3.28;75.96;95912.16;5052979;28;20422;-69
2021/03/14 05:47:45;;;;;;;1.23;1.13;;;;;;;3.33;74.77;95912.59;5053027;28;20421;-70
2021/03/14 05:50:14;;;;;;;3.20;1.40;;;;;;;3.20;77.11;95913.69;5051826;28;20943;-68
2021/03/14 05:52:41;;;;;;;1.10;1.00;;;;;;;3.22;77.42;95924.72;5054578;28;20445;-68
2021/03/14 05:55:20;;;;;;;1.57;1.47;;;;;;;3.37;76.52;95927.69;5052283;28;20422;-69
2021/03/14 05:57:48;;;;;;;3.57;1.50;;;;;;;3.17;77.68;95936.47;5053992;28;20487;-69
2021/03/14 06:00:23;;;;;;;1.37;1.27;;;;;;;3.14;76.68;95932.38;5052105;28;20421;-68
2021/03/14 06:02:48;;;;;;;1.37;1.27;;;;;;;3.43;76.20;95928.13;5052697;28;20472;-70
2021/03/14 06:05:14;;;;;;;2.30;1.30;;;;;;;3.44;75.52;95935.72;5053582;28;20422;-70
2021/03/14 06:07:40;;;;;;;2.93;1.73;;;;;;;3.60;75.66;95942.94;5050366;28;20198;-69
2021/03/14 06:10:07;;;;;;;1.50;1.30;;;;;;;3.43;75.09;95954.81;5076517;28;20429;-69
2021/03/14 06:12:32;;;;;;;3.67;1.77;;;;;;;3.46;75.46;95977.06;5053789;28;20663;-70
2021/03/14 06:14:59;;;;;;;1.57;1.30;;;;;;;3.57;74.65;95968.31;5062158;28;20422;-69
2021/03/14 06:17:28;;;;;;;2.03;1.40;;;;;;;3.65;74.39;95971.84;5062460;28;20202;-68
2021/03/14 06:19:54;;;;;;;2.27;1.37;;;;;;;3.83;73.65;95979.72;5055382;28;20468;-69
2021/03/14 06:22:27;;;;;;;4.70;1.80;;;;;;;3.76;73.31;95983.84;5067337;28;20967;-70
2021/03/14 06:24:54;;;;;;;1.60;1.50;;;;;;;3.95;72.98;95989.91;5066661;28;20433;-70
2021/03/14 06:27:51;;;;;;;4.47;1.90;;;;;;;3.81;73.45;96001.56;5067773;28;20432;-71
2021/03/14 06:30:32;;;;;;;1.90;1.70;;;;;;;3.57;72.85;96005.41;5071916;28;20414;-69
2021/03/14 06:33:14;;;;;;;2.77;1.60;;;;;;;3.93;72.44;96015.16;5078048;28;20436;-69
2021/03/14 06:35:54;;;;;;;2.60;1.60;;;;;;;4.19;71.62;96022.31;5067830;28;20465;-70
2021/03/14 06:38:21;;;;;;;5.30;1.80;;;;;;;4.16;70.67;96023.44;5064268;28;20822;-69
2021/03/14 06:40:49;;;;;;;2.30;1.80;;;;;;;3.54;71.96;96036.75;5054382;28;20482;-69
2021/03/14 06:43:15;;;;;;;4.17;1.90;;;;;;;3.79;71.37;96037.97;5058157;28;20452;-69
2021/03/14 06:45:42;;;;;;;3.90;2.10;;;;;;;3.94;70.84;96027.16;5055966;28;20418;-68
2021/03/14 06:48:09;;;;;;;6.50;1.90;;;;;;;3.80;71.20;96038.78;5054737;28;20650;-69
2021/03/14 06:50:39;;;;;;;2.80;1.67;;;;;;;3.74;70.69;96047.94;5052686;28;20437;-69
2021/03/14 06:53:07;;;;;;;5.23;1.90;;;;;;;4.15;70.05;96048.56;5086152;28;20472;-69
2021/03/14 06:55:33;;;;;;;3.20;1.80;;;;;;;3.83;70.69;96067.03;5065702;28;20540;-70
2021/03/14 06:58:27;;;;;;;2.80;1.90;;;;;;;3.86;70.43;96060.75;5071883;28;20512;-70
2021/03/14 07:01:12;;;;;;;4.83;1.90;;;;;;;4.05;69.47;96060.72;5061189;28;20206;-69
2021/03/14 07:03:58;;;;;;;4.83;2.70;;;;;;;4.55;68.25;96067.41;5051732;28;20441;-70
2021/03/14 07:06:28;;;;;;;6.93;1.90;;;;;;;4.79;66.92;96067.88;5054506;28;20425;-69
2021/03/14 07:09:11;;;;;;;8.77;1.80;;;;;;;4.66;66.84;96082.00;5049208;28;20978;-68
2021/03/14 07:11:46;;;;;;;6.43;1.90;;;;;;;4.68;65.95;96084.44;5049852;28;20502;-69
2021/03/14 07:14:14;;;;;;;4.30;1.97;;;;;;;4.63;67.17;96076.25;5050631;28;20459;-69
2021/03/14 07:16:47;;;;;;;3.43;1.97;;;;;;;4.79;66.17;96099.03;5051982;28;20434;-67
2021/03/14 07:19:26;;;;;;;5.73;1.83;;;;;;;4.63;66.45;96100.44;5049126;28;21298;-69
2021/03/14 07:22:01;;;;;;;4.77;1.70;;;;;;;4.84;66.63;96101.97;5051019;28;20448;-69
2021/03/14 07:24:40;;;;;;;5.50;1.97;;;;;;;4.95;66.51;96104.38;5051125;28;20437;-68
2021/03/14 07:27:07;;;;;;;6.80;2.00;;;;;;;4.34;66.54;96106.50;5050816;28;20417;-68
2021/03/14 07:29:34;;;;;;;5.67;2.20;;;;;;;4.85;66.34;96108.81;5052923;28;20997;-67
2021/03/14 07:32:01;;;;;;;3.67;1.80;;;;;;;4.93;66.26;96111.50;5049258;28;20422;-64
2021/03/14 07:34:26;;;;;;;3.27;1.90;;;;;;;5.14;65.21;96113.06;5049146;28;20987;-68
2021/03/14 07:36:53;;;;;;;4.00;1.87;;;;;;;5.26;64.93;96116.25;5053232;28;20412;-65
2021/03/14 07:39:19;;;;;;;2.57;1.90;;;;;;;5.48;65.52;96117.63;5050350;28;20191;-68
2021/03/14 07:41:45;;;;;;;8.80;2.27;;;;;;;5.25;65.64;96122.41;5052226;28;20450;-66
2021/03/14 07:44:11;;;;;;;2.23;1.63;;;;;;;4.94;65.29;96122.72;5049026;28;20449;-66
2021/03/14 07:46:41;;;;;;;7.10;2.00;;;;;;;4.86;65.17;96121.63;5050068;28;20417;-65
2021/03/14 07:49:06;;;;;;;4.67;2.17;;;;;;;5.32;64.97;96124.28;5048323;28;20422;-68
2021/03/14 07:51:33;;;;;;;4.67;1.70;;;;;;;4.50;67.59;96129.28;5049501;28;20418;-66
2021/03/14 07:54:04;;;;;;;5.20;2.20;;;;;;;4.65;66.72;96129.66;5047447;28;20217;-69
2021/03/14 07:56:39;;;;;;;4.50;1.50;;;;;;;5.22;64.61;96136.53;5055333;28;20468;-66
2021/03/14 07:59:06;;;;;;;6.47;2.10;;;;;;;5.15;65.06;96148.47;5049735;28;20444;-67
2021/03/14 08:01:34;;;;;;;5.27;2.20;;;;;;;4.89;65.92;96136.13;5048687;28;20446;-67
2021/03/14 08:04:00;;;;;;;4.17;2.00;;;;;;;5.14;64.75;96144.22;5049715;28;20511;-66
2021/03/14 08:06:41;;;;;;;5.40;2.00;;;;;;;4.95;65.53;96153.72;5050162;28;20428;-66
2021/03/14 08:09:07;;;;;;;8.30;2.27;;;;;;;5.20;65.53;96154.03;5049492;28;20467;-67
2021/03/14 08:11:32;;;;;;;5.90;2.27;;;;;;;5.47;64.36;96165.38;5050400;28;20413;-67
2021/03/14 08:13:58;;;;;;;6.43;2.07;;;;;;;5.23;65.48;96161.53;5049958;28;20301;-66
2021/03/14 08:16:24;;;;;;;8.10;2.07;;;;;;;4.19;67.66;96170.97;5050068;28;20326;-67
2021/03/14 08:18:51;;;;;;;4.50;2.00;;;;;;;4.70;67.25;96176.75;5049300;28;20179;-66
2021/03/14 08:21:19;;;;;;;4.87;2.20;;;;;;;4.80;67.31;96173.31;5049436;28;20195;-69
2021/03/14 08:23:49;;;;;;;6.03;2.07;;;;;;;4.90;65.97;96163.75;5082239;28;20445;-68
2021/03/14 08:26:22;;;;;;;8.87;2.17;;;;;;;5.47;65.05;96165.38;5044625;28;20424;-68
2021/03/14 08:29:01;;;;;;;3.83;1.77;;;;;;;5.20;65.57;96169.63;5080161;28;20429;-69
2021/03/14 08:31:46;;;;;;;6.80;1.90;;;;;;;5.77;63.95;96168.63;5045485;28;20924;-69
2021/03/14 08:34:18;;;;;;;4.10;1.90;;;;;;;5.76;63.92;96173.00;5050181;28;20448;-66
2021/03/14 08:36:44;;;;;;;4.13;1.83;;;;;;;5.97;62.71;96172.72;5058818;28;20463;-68
2021/03/14 08:39:25;;;;;;;8.13;1.83;;;;;;;5.52;64.99;96173.56;5061708;28;21049;-67
2021/03/14 08:41:53;;;;;;;2.00;1.70;;;;;;;5.79;64.11;96184.91;5051345;28;20456;-67
2021/03/14 08:44:39;;;;;;;5.90;1.90;;;;;;;6.05;63.61;96173.78;5050492;28;20461;-68
2021/03/14 08:47:15;;;;;;;4.80;2.10;;;;;;;6.09;62.00;96177.72;5050854;28;20414;-68
2021/03/14 08:49:45;;;;;;;2.43;1.57;;;;;;;6.44;60.54;96169.06;5048840;28;20489;-67
2021/03/14 08:52:11;;;;;;;9.30;1.80;;;;;;;6.35;60.41;96174.34;5050086;28;20467;-67
2021/03/14 08:54:57;;;;;;;5.67;1.63;;;;;;;6.48;60.67;96179.97;5054540;28;20440;-68
2021/03/14 08:57:24;;;;;;;10.73;1.77;;;;;;;6.55;61.11;96178.38;5045842;28;20418;-67
2021/03/14 08:59:57;;;;;;;8.00;1.40;;;;;;;6.89;59.65;96175.03;5047546;28;21088;-67
2021/03/14 09:02:27;;;;;;;9.00;2.10;;;;;;;6.49;60.01;96181.63;5048902;28;20445;-67
2021/03/14 09:04:54;;;;;;;3.90;1.43;;;;;;;6.13;59.47;96184.25;5050493;28;20424;-67
2021/03/14 09:07:25;;;;;;;5.50;1.57;;;;;;;6.37;59.57;96188.03;5056629;28;20453;-66
2021/03/14 09:09:51;;;;;;;9.30;1.40;;;;;;;6.60;59.04;96194.38;5059901;28;20459;-67
2021/03/14 09:12:19;;;;;;;2.63;1.50;;;;;;;6.69;59.62;96194.44;5052148;28;20417;-66
2021/03/14 09:14:46;;;;;;;3.87;1.70;;;;;;;6.39;61.03;96194.72;5053614;28;20179;-67
2021/03/14 09:17:18;;;;;;;2.17;1.50;;;;;;;6.33;60.06;96202.31;5053309;28;20434;-68
2021/03/14 09:19:48;;;;;;;6.03;2.07;;;;;;;6.29;60.94;96214.81;5052439;28;20859;-67
2021/03/14 09:22:20;;;;;;;4.50;1.80;;;;;;;6.52;59.83;96212.56;5051593;28;20457;-71
2021/03/14 09:24:59;;;;;;;4.73;1.70;;;;;;;6.21;60.11;96220.75;5052428;28;20452;-68
2021/03/14 09:27:36;;;;;;;3.00;1.93;;;;;;;6.46;60.42;96218.34;5053029;28;20484;-68
2021/03/14 09:30:08;;;;;;;4.23;1.37;;;;;;;6.43;60.00;96218.66;5052316;28;20417;-67
2021/03/14 09:32:39;;;;;;;6.60;1.77;;;;;;;7.06;59.09;96216.78;5053600;28;20422;-67
2021/03/14 09:35:22;;;;;;;3.50;2.10;;;;;;;6.94;59.18;96223.22;5055588;28;20448;-66
2021/03/14 09:37:50;;;;;;;16.40;3.20;;;;;;;6.49;60.51;96228.47;5052927;28;20507;-66
2021/03/14 09:40:21;;;;;;;4.63;1.97;;;;;;;7.07;59.81;96221.03;5052490;28;20460;-66
2021/03/14 09:42:50;;;;;;;3.63;1.87;;;;;;;6.66;59.82;96219.00;5053135;28;20493;-67
2021/03/14 09:45:18;;;;;;;1.33;1.23;;;;;;;7.02;59.55;96218.91;5053514;28;20417;-67
2021/03/14 09:48:02;;;;;;;4.53;1.90;;;;;;;7.26;58.27;96220.00;5052918;28;20479;-68
2021/03/14 09:50:36;;;;;;;1.50;1.13;;;;;;;8.21;56.76;96226.00;5052077;28;20424;-67
2021/03/14 09:53:03;;;;;;;2.43;1.73;;;;;;;8.58;53.88;96230.78;5053557;28;20474;-68
2021/03/14 09:55:40;;;;;;;2.40;1.00;;;;;;;8.94;53.13;96227.00;5051128;28;20427;-68
2021/03/14 09:58:12;;;;;;;2.40;1.40;;;;;;;8.64;54.20;96220.66;5052500;28;20421;-66
2021/03/14 10:00:38;;;;;;;5.07;1.57;;;;;;;8.26;52.70;96232.38;5051775;28;20422;-67
2021/03/14 10:03:06;;;;;;;3.13;1.30;;;;;;;6.91;55.36;96227.81;5053425;28;20525;-67
2021/03/14 10:05:45;;;;;;;3.33;1.30;;;;;;;7.21;56.16;96235.31;5061333;28;20865;-67
2021/03/14 10:08:16;;;;;;;2.60;1.07;;;;;;;7.07;54.63;96226.25;5054524;28;20418;-66
2021/03/14 10:10:43;;;;;;;1.80;1.30;;;;;;;7.16;55.05;96219.31;5054664;28;20489;-66
2021/03/14 10:13:08;;;;;;;2.90;1.40;;;;;;;7.33;54.21;96225.41;5052327;28;20449;-67
2021/03/14 10:15:35;;;;;;;5.30;1.60;;;;;;;7.35;54.23;96223.47;5053160;28;20437;-67
2021/03/14 10:18:03;;;;;;;6.23;1.20;;;;;;;7.04;54.36;96234.41;5058644;28;20266;-67
2021/03/14 10:20:29;;;;;;;3.50;1.33;;;;;;;7.00;54.96;96230.44;5062487;28;20446;-65
2021/03/14 10:23:06;;;;;;;2.30;1.20;;;;;;;6.57;56.08;96225.91;5061507;28;20461;-67
2021/03/14 10:25:35;;;;;;;3.90;1.50;;;;;;;7.23;55.13;96226.34;5053798;28;20946;-67
2021/03/14 10:28:08;;;;;;;1.77;1.20;;;;;;;7.29;54.26;96218.91;5084347;28;20430;-66
2021/03/14 10:30:33;;;;;;;2.90;1.60;;;;;;;6.60;56.11;96222.22;5065920;28;20497;-67
2021/03/14 10:32:59;;;;;;;4.40;2.97;;;;;;;6.92;55.73;96223.41;5065849;28;20442;-69
2021/03/14 10:35:26;;;;;;;3.37;1.73;;;;;;;6.94;55.92;96216.25;5067389;28;20179;-67
2021/03/14 10:37:52;;;;;;;3.13;1.93;;;;;;;6.83;55.23;96217.31;5054135;28;21032;-68
2021/03/14 10:40:22;;;;;;;3.40;1.40;;;;;;;7.03;55.79;96219.72;5051848;28;20512;-69
2021/03/14 10:42:49;;;;;;;5.43;1.70;;;;;;;6.74;56.22;96219.03;5050875;28;20298;-69
2021/03/14 10:45:17;;;;;;;6.53;1.00;;;;;;;6.28;57.76;96216.59;5052436;28;20421;-69
2021/03/14 10:47:46;;;;;;;2.63;1.30;;;;;;;6.48;58.12;96218.22;5051081;28;20457;-67
2021/03/14 10:50:17;;;;;;;2.60;1.47;;;;;;;6.34;57.35;96215.19;5081093;28;20418;-67
2021/03/14 10:52:44;;;;;;;3.53;1.40;;;;;;;6.71;56.94;96214.16;5058923;28;20438;-67
2021/03/14 10:55:30;;;;;;;1.60;1.10;;;;;;;6.19;57.52;96206.25;5048521;28;20425;-67
2021/03/14 10:58:14;;;;;;;5.53;1.27;;;;;;;6.53;56.79;96211.59;5085856;28;20456;-67
2021/03/14 11:00:47;;;;;;;4.80;1.43;;;;;;;6.43;56.53;96218.66;5051061;28;20425;-66
2021/03/14 11:03:27;;;;;;;2.63;1.43;;;;;;;6.95;56.09;96217.06;5049681;28;20444;-66
2021/03/14 11:06:07;;;;;;;1.53;1.17;;;;;;;7.12;55.37;96218.81;5049211;28;20489;-66
2021/03/14 11:09:05;;;;;;;2.93;1.70;;;;;;;7.03;54.15;96215.31;5051392;28;20512;-67
2021/03/14 11:11:42;;;;;;;5.63;2.47;;;;;;;7.17;52.42;96216.56;5008371;28;20432;-67
2021/03/14 11:14:26;;;;;;;2.70;1.13;;;;;;;6.76;52.15;96221.50;5009022;28;20447;-66
2021/03/14 11:17:11;;;;;;;2.03;1.13;;;;;;;6.70;52.55;96228.16;5010945;28;21001;-69
2021/03/14 11:19:42;;;;;;;4.13;1.43;;;;;;;6.69;51.42;96218.69;5008298;28;20434;-66
2021/03/14 11:22:07;;;;;;;2.90;1.73;;;;;;;7.31;50.01;96211.75;5011874;28;20451;-66
2021/03/14 11:24:34;;;;;;;3.87;1.23;;;;;;;6.82;50.14;96207.06;5013258;28;20505;-66
2021/03/14 11:27:00;;;;;;;3.00;1.13;;;;;;;7.01;49.09;96208.66;5025169;28;20192;-67
2021/03/14 11:29:25;;;;;;;1.30;1.20;;;;;;;7.55;47.95;96210.19;5009667;28;20909;-66
2021/03/14 11:32:00;;;;;;;2.43;1.30;;;;;;;7.47;47.43;96210.97;5013425;28;20416;-64
2021/03/14 11:34:26;;;;;;;3.60;1.10;;;;;;;7.56;48.47;96206.63;4974776;28;20223;-67
2021/03/14 11:36:52;;;;;;;4.90;1.43;;;;;;;8.19;46.33;96217.53;5019717;28;20431;-66
2021/03/14 11:39:18;;;;;;;4.03;1.30;;;;;;;8.38;44.88;96219.03;5009357;28;20242;-66
2021/03/14 11:41:45;;;;;;;2.60;1.23;;;;;;;8.20;46.65;96200.88;5007689;28;20212;-67
2021/03/14 11:44:11;;;;;;;6.50;1.70;;;;;;;7.72;47.09;96214.47;5006370;28;20462;-66
2021/03/14 11:46:36;;;;;;;4.73;1.13;;;;;;;8.13;45.93;96217.19;5021967;28;20433;-66
2021/03/14 11:49:03;;;;;;;4.23;1.13;;;;;;;8.44;45.70;96211.31;5049960;28;20668;-67